Estaciones Metar próximas

 

LELL - Sabadell, Spain
Distancia a la estación: E 18km
Actualizado: 15/08/2018 22:00
Muy nuboso
Muy nuboso
 Viento del SSE
Viento: SSE 11 km/h
Temperatura: 26°C
Rocío: 20°C
Humedad: 70%
Barómetro: 1018 hPa
Nubes: Muy nuboso
Visibilidad: 10 km
Detalle Nubes: Parcialmente nuboso 884 m
Muy nuboso 1311 m
Muy nuboso 1494 m
2018/08/15 20:00 LELL 152000Z AUTO 15006KT 9999 SCT029/// BKN043/// BKN049/// 26/20 Q1018
LEBL - Barcelona Airpor, Spain
Distancia a la estación: SSE 33km
Actualizado: 15/08/2018 22:00
Parcialmente nuboso
Parcialmente nuboso
 Viento del SSE
Viento: SSE 6 km/h
Temperatura: 26°C
Rocío: 21°C
Humedad: 74%
Barómetro: 1017 hPa
Nubes: Parcialmente nuboso
Visibilidad: 10 km
Detalle Nubes: Parcialmente nuboso 914 m
2018/08/15 20:00 LEBL 152000Z 15003KT 9999 SCT030 26/21 Q1017 NOSIG
LERS - Reus (civ/Mil), Spain
Distancia a la estación: SO 75km
Actualizado: 15/08/2018 22:00
Parcialmente nuboso
Parcialmente nuboso
 Viento del SO
Viento: SO 6 km/h
Temperatura: 25°C
Rocío: 22°C
Humedad: 83%
Barómetro: 1017 hPa
Nubes: Parcialmente nuboso
Visibilidad: 10 km
Detalle Nubes: Parcialmente nuboso 823 m
2018/08/15 20:00 LERS 152000Z 23003KT 9999 SCT027 25/22 Q1017
 
LEGE - Gerona/Costa Bra, Spain
Distancia a la estación: ENE 83km
Actualizado: 15/08/2018 22:00
Nubes dispersas
Nubes dispersas
 Viento del OSO
Viento: OSO 7 km/h
Temperatura: 22°C
Rocío: 17°C
Humedad: 73%
Barómetro: 1017 hPa
Nubes: Nubes dispersas
Visibilidad: 10 km
Detalle Nubes: Nubes dispersas 1372 m
2018/08/15 20:00 LEGE 152000Z 24004KT 210V270 9999 FEW045 22/17 Q1017
LFMP - Perpignan/Rivesa, France
Distancia a la estación: NNE 155km
Actualizado: 15/08/2018 22:00
Despejado
Despejado
 Viento del ONO
Viento: ONO 11 km/h
Temperatura: 26°C
Rocío: 13°C
Humedad: 45%
Barómetro: 1016 hPa
Resumen: Despejado
Visibilidad: greater than 10 km
2018/08/15 20:00 LFMP 152000Z AUTO 30006KT CAVOK 26/13 Q1016 NOSIG
LFMK - Carcassonne/Salv, France
Distancia a la estación: N 191km
Actualizado: 15/08/2018 22:00
Despejado
Despejado
 Viento del SO
Viento: SO 9 km/h
Temperatura: 22°C
Rocío: 14°C
Humedad: 61%
Barómetro: 1017 hPa
Resumen: Despejado
Visibilidad: greater than 10 km
2018/08/15 20:00 LFMK 152000Z AUTO 22005KT CAVOK 22/14 Q1017
 
LEHC - Huesca-Pirineos, Spain
Distancia a la estación: ONO 193km
Actualizado: 15/08/2018 22:00
Despejado
Despejado
 Viento del varies
Viento: varies 4 km/h
Temperatura: 23°C
Rocío: 12°C
Humedad: 50%
Barómetro: 1018 hPa
Nubes: Despejado
Visibilidad: 10 km
2018/08/15 20:00 LEHC 152000Z AUTO VRB02KT 9999 NCD 23/12 Q1018
LFMU - Beziers/Vias, France
Distancia a la estación: NNE 232km
Actualizado: 15/08/2018 22:00
Despejado
Despejado
 Viento del varies
Viento: varies 4 km/h
Temperatura: 24°C
Rocío: 15°C
Humedad: 57%
Barómetro: 1016 hPa
Resumen: Despejado
Visibilidad: greater than 10 km
2018/08/15 20:00 LFMU 152000Z AUTO VRB02KT CAVOK 24/15 Q1016 TEMPO 18012KT
LEPA - Palma De Mallorc, Spain
Distancia a la estación: SSE 233km
Actualizado: 15/08/2018 22:00
Parcialmente nuboso
Parcialmente nuboso
 Viento del S
Viento: S 6 km/h
Temperatura: 27°C
Heat Index: 28°C
Rocío: 19°C
Humedad: 62%
Barómetro: 1017 hPa
Nubes: Parcialmente nuboso
Visibilidad: 10 km
Detalle Nubes: Nubes dispersas 762 m
Parcialmente nuboso 1372 m
2018/08/15 20:00 LEPA 152000Z 19003KT 150V210 9999 FEW025 SCT045 27/19 Q1017 NOSIG
 
LFBO - Toulouse/Blagnac, France
Distancia a la estación: N 236km
Actualizado: 15/08/2018 22:00
Despejado
Despejado
 Viento del NO
Viento: NO 9 km/h
Temperatura: 25°C
Rocío: 14°C
Humedad: 51%
Barómetro: 1017 hPa
Resumen: Despejado
Visibilidad: greater than 10 km
2018/08/15 20:00 LFBO 152000Z AUTO 32005KT CAVOK 25/14 Q1017 NOSIG
LFBT - Tarbes/Ossun, France
Distancia a la estación: NO 239km
Actualizado: 15/08/2018 22:00
Despejado
Despejado
 Viento del SSO
Viento: SSO 9 km/h
Temperatura: 18°C
Rocío: 16°C
Humedad: 88%
Barómetro: 1018 hPa
Resumen: Despejado
Visibilidad: greater than 10 km
2018/08/15 20:00 LFBT 152000Z AUTO 20005KT CAVOK 18/16 Q1018 NOSIG
LEZG - Zaragoza (mil/Ci, Spain
Distancia a la estación: O 242km
Actualizado: 15/08/2018 22:00
Nubes dispersas
Nubes dispersas
 Viento del S
Viento: S 7 km/h
Temperatura: 27°C
Rocío: 12°C
Humedad: 39%
Barómetro: 1015 hPa
Nubes: Nubes dispersas
Visibilidad: 10 km
Detalle Nubes: Nubes dispersas 1219 m
2018/08/15 20:00 LEZG 152000Z 17004KT 9999 FEW040 27/12 Q1015